Main page
METAR-TAF:

METAR-TAF

Airports :

Pau Pyrénées Airport

Pau, France

latitude: 43-23N, longitude: 000-25W, elevation: 188 m

Current weather observation

The report was made 31 minutes ago, at 08:30 UTC
Wind 3 kt from variable directions
Temperature 9°C
Humidity 87%
Pressure 1010 hPa
Visibility 10 km or more
Broken clouds at a height of 7800 ft

METAR: LFBP 180830Z AUTO VRB03KT 9999 BKN078 09/07 Q1010 TEMPO BKN009 OVC040

Time: 10:01 (09:01 UTC)

Forecast

The report was made 26 minutes ago, at 08:35 UTC
Forecast valid from 18 at 08 UTC to 19 at 06 UTC
Wind 5 kt from the East
Visibility 10 km or more
Broken clouds at a height of 7000 ft
Probability 40% :
Temporary
from 18 at 10 UTC to 18 at 14 UTC
Visibility: 5000 m
Broken clouds at a height of 900 ft
Overcast at a height of 4000 ft
light rain

TAF: LFBP 180835Z 1808/1906 08005KT 9999 BKN070 PROB40 TEMPO 1810/1814 5000 -RA BKN009 OVC040

Weather observations and forecasts of more than 4000 airports (METAR and TAF reports).

The available stations are represented by yellow and red dots on the map.

Hover mouse over dot to see the name of the station.

Then click to see weather observations and forecasts.

To change the map : click on the green buttons with a black cross to zoom in, on the green button with a dash to zoom out, or on the green arrows for adjacent maps.


METAR-TAF: